Time;durP1;ratioP1;P1;durP2;ratioP2;P2;SDS_P1;SDS_P2;PMS_P1;PMS_P2;Temp;Humidity;BMP_temperature;BMP_pressure;BME280_temperature;BME280_humidity;BME280_pressure;Samples;Min_cycle;Max_cycle;Signal;HPM_P1;HPM_P2
2022/08/19 00:02:15;;;;;;;7.10;3.70;;;;;;;;;;4883461;29;20028;-81
2022/08/19 00:04:41;;;;;;;6.57;3.20;;;;;;;;;;4883606;29;20033;-81
2022/08/19 00:07:07;;;;;;;10.88;4.25;;;;;;;;;;4884231;29;20119;-73
2022/08/19 00:09:34;;;;;;;13.48;3.50;;;;;;;;;;4900642;29;20033;-73
2022/08/19 00:12:00;;;;;;;14.07;4.18;;;;;;;;;;4900316;29;20035;-74
2022/08/19 00:14:27;;;;;;;6.57;3.45;;;;;;;;;;4883240;29;20028;-73
2022/08/19 00:16:54;;;;;;;18.67;3.70;;;;;;;;;;4883332;29;20561;-73
2022/08/19 00:19:20;;;;;;;10.40;4.07;;;;;;;;;;4900157;29;20084;-76
2022/08/19 00:21:46;;;;;;;13.13;3.58;;;;;;;;;;4900512;29;20526;-73
2022/08/19 00:24:14;;;;;;;10.48;4.03;;;;;;;;;;4883231;29;20029;-77
2022/08/19 00:26:41;;;;;;;11.05;4.20;;;;;;;;;;4883328;29;20037;-80
2022/08/19 00:29:08;;;;;;;9.10;3.67;;;;;;;;;;4899880;29;20033;-80
2022/08/19 00:31:35;;;;;;;12.95;3.50;;;;;;;;;;4900048;29;20084;-81
2022/08/19 00:34:01;;;;;;;9.52;3.42;;;;;;;;;;4883046;29;20390;-81
2022/08/19 00:36:28;;;;;;;7.70;3.60;;;;;;;;;;4900815;29;20033;-73
2022/08/19 00:38:55;;;;;;;10.02;3.95;;;;;;;;;;4898665;29;20497;-80
2022/08/19 00:41:22;;;;;;;14.55;3.92;;;;;;;;;;4882846;29;20084;-73
2022/08/19 00:43:58;;;;;;;12.07;3.67;;;;;;;;;;4882975;29;20025;-79
2022/08/19 00:46:24;;;;;;;7.40;3.63;;;;;;;;;;4883612;29;20044;-81
2022/08/19 00:48:50;;;;;;;7.63;3.58;;;;;;;;;;4900193;29;20028;-81
2022/08/19 00:51:16;;;;;;;6.82;3.22;;;;;;;;;;4882804;29;20028;-73
2022/08/19 00:53:43;;;;;;;10.88;3.53;;;;;;;;;;4883465;29;20040;-80
2022/08/19 00:56:09;;;;;;;7.43;3.65;;;;;;;;;;4901073;29;20026;-79
2022/08/19 00:58:36;;;;;;;8.80;3.67;;;;;;;;;;4882746;29;20072;-74
2022/08/19 01:01:04;;;;;;;8.63;3.58;;;;;;;;;;4882463;29;20422;-77
2022/08/19 01:03:30;;;;;;;7.35;3.53;;;;;;;;;;4882364;29;20070;-81
2022/08/19 01:05:56;;;;;;;10.13;3.50;;;;;;;;;;4882610;29;20037;-72
2022/08/19 01:08:22;;;;;;;13.43;3.83;;;;;;;;;;4882635;29;20032;-81
2022/08/19 01:10:51;;;;;;;5.90;3.17;;;;;;;;;;4882528;29;20029;-81
2022/08/19 01:13:19;;;;;;;7.03;3.95;;;;;;;;;;4882396;29;20115;-81
2022/08/19 01:15:47;;;;;;;8.10;3.42;;;;;;;;;;4882289;29;20024;-81
2022/08/19 01:18:17;;;;;;;8.07;3.10;;;;;;;;;;4882455;29;20498;-81
2022/08/19 01:20:44;;;;;;;5.90;2.90;;;;;;;;;;4882914;29;20037;-81
2022/08/19 01:23:10;;;;;;;8.82;2.95;;;;;;;;;;4882201;29;20031;-80
2022/08/19 01:25:41;;;;;;;10.68;3.85;;;;;;;;;;4882099;29;20040;-81
2022/08/19 01:28:07;;;;;;;9.10;3.75;;;;;;;;;;4882132;29;20458;-80
2022/08/19 01:30:34;;;;;;;10.75;3.75;;;;;;;;;;4881862;29;20035;-78
2022/08/19 01:33:00;;;;;;;7.22;3.67;;;;;;;;;;4881701;29;20036;-80
2022/08/19 01:35:28;;;;;;;8.05;3.40;;;;;;;;;;4881830;29;20025;-73
2022/08/19 01:37:56;;;;;;;7.28;3.53;;;;;;;;;;4883383;29;20096;-73
2022/08/19 01:40:24;;;;;;;12.38;3.75;;;;;;;;;;4917770;29;20439;-73
2022/08/19 01:42:52;;;;;;;7.97;3.25;;;;;;;;;;4900671;29;20035;-73
2022/08/19 01:45:19;;;;;;;12.70;3.58;;;;;;;;;;4900513;29;20024;-81
2022/08/19 01:47:46;;;;;;;9.63;3.25;;;;;;;;;;4900704;29;20060;-73
2022/08/19 01:50:13;;;;;;;12.52;3.30;;;;;;;;;;4900861;29;20039;-73
2022/08/19 01:52:40;;;;;;;10.43;3.58;;;;;;;;;;4900862;29;20076;-81
2022/08/19 01:55:08;;;;;;;7.35;3.40;;;;;;;;;;4901579;29;20043;-81
2022/08/19 01:57:34;;;;;;;9.15;3.80;;;;;;;;;;4900278;29;20047;-81
2022/08/19 02:00:03;;;;;;;11.40;3.55;;;;;;;;;;4900970;29;20031;-72
2022/08/19 02:02:29;;;;;;;7.15;3.67;;;;;;;;;;4900375;29;20032;-72
2022/08/19 02:04:55;;;;;;;9.60;3.42;;;;;;;;;;4900569;29;20549;-81
2022/08/19 02:07:21;;;;;;;14.75;3.60;;;;;;;;;;4900384;29;20122;-73
2022/08/19 02:09:48;;;;;;;12.63;3.78;;;;;;;;;;4900391;29;20073;-79
2022/08/19 02:12:16;;;;;;;15.00;3.42;;;;;;;;;;4900908;29;20141;-80
2022/08/19 02:14:42;;;;;;;11.15;3.65;;;;;;;;;;4901003;29;20028;-72
2022/08/19 02:17:08;;;;;;;6.75;3.38;;;;;;;;;;4900227;29;20036;-77
2022/08/19 02:19:35;;;;;;;8.70;3.55;;;;;;;;;;4900152;29;20036;-75
2022/08/19 02:22:01;;;;;;;7.65;3.42;;;;;;;;;;4901062;29;20035;-80
2022/08/19 02:24:27;;;;;;;10.25;3.45;;;;;;;;;;4900081;29;20067;-79
2022/08/19 02:26:54;;;;;;;10.43;2.83;;;;;;;;;;4917339;29;20038;-80
2022/08/19 02:29:20;;;;;;;8.15;2.85;;;;;;;;;;4901347;29;20032;-78
2022/08/19 02:31:46;;;;;;;11.43;3.17;;;;;;;;;;4899997;29;20061;-73
2022/08/19 02:34:13;;;;;;;10.10;2.67;;;;;;;;;;4900304;29;20477;-73
2022/08/19 02:36:39;;;;;;;10.48;3.10;;;;;;;;;;4899897;29;20037;-80
2022/08/19 02:39:05;;;;;;;6.00;2.70;;;;;;;;;;4889130;29;20553;-80
2022/08/19 02:41:32;;;;;;;6.90;2.45;;;;;;;;;;4881108;29;20051;-73
2022/08/19 02:44:00;;;;;;;7.72;2.33;;;;;;;;;;4898142;29;20071;-80
2022/08/19 02:46:29;;;;;;;13.75;3.10;;;;;;;;;;4884647;29;20359;-80
2022/08/19 02:48:58;;;;;;;7.00;2.80;;;;;;;;;;4884726;29;20056;-80
2022/08/19 02:51:26;;;;;;;9.95;3.53;;;;;;;;;;4884761;29;20068;-81
2022/08/19 02:53:52;;;;;;;10.38;2.80;;;;;;;;;;4884962;29;20029;-80
2022/08/19 02:56:19;;;;;;;10.90;2.67;;;;;;;;;;4901676;29;20028;-72
2022/08/19 02:58:45;;;;;;;5.93;2.50;;;;;;;;;;4884760;29;20035;-73
2022/08/19 03:01:20;;;;;;;13.73;3.10;;;;;;;;;;4884878;29;20032;-77
2022/08/19 03:03:46;;;;;;;9.40;2.65;;;;;;;;;;4884736;29;20111;-79
2022/08/19 03:06:14;;;;;;;8.80;2.53;;;;;;;;;;4902186;29;20474;-72
2022/08/19 03:08:41;;;;;;;10.95;2.80;;;;;;;;;;4884688;29;20033;-78
2022/08/19 03:11:12;;;;;;;8.80;3.10;;;;;;;;;;4884506;29;20087;-73
2022/08/19 03:13:38;;;;;;;6.90;2.55;;;;;;;;;;4884616;29;20033;-81
2022/08/19 03:16:05;;;;;;;10.07;2.72;;;;;;;;;;4884500;29;20033;-81
2022/08/19 03:18:31;;;;;;;6.70;2.15;;;;;;;;;;4901264;29;20037;-81
2022/08/19 03:20:58;;;;;;;11.10;3.03;;;;;;;;;;4884454;29;20032;-82
2022/08/19 03:23:24;;;;;;;10.85;2.80;;;;;;;;;;4901230;29;20569;-81
2022/08/19 03:25:52;;;;;;;10.45;2.90;;;;;;;;;;4884119;29;20065;-82
2022/08/19 03:28:19;;;;;;;14.80;3.08;;;;;;;;;;4884321;29;20351;-74
2022/08/19 03:30:58;;;;;;;11.15;2.42;;;;;;;;;;4883974;29;20035;-74
2022/08/19 03:33:24;;;;;;;10.25;3.08;;;;;;;;;;4884452;29;20508;-81
2022/08/19 03:36:10;;;;;;;12.75;2.95;;;;;;;;;;4884083;29;20485;-81
2022/08/19 03:38:38;;;;;;;13.32;2.67;;;;;;;;;;4895070;29;20060;-74
2022/08/19 03:41:08;;;;;;;6.35;2.58;;;;;;;;;;4918705;29;20036;-73
2022/08/19 03:43:36;;;;;;;11.07;2.85;;;;;;;;;;4918507;29;20470;-73
2022/08/19 03:46:07;;;;;;;9.82;3.08;;;;;;;;;;4919382;29;20470;-77
2022/08/19 03:48:33;;;;;;;8.32;3.08;;;;;;;;;;4918149;29;20028;-81
2022/08/19 03:51:00;;;;;;;13.07;3.13;;;;;;;;;;4918336;29;20433;-73
2022/08/19 03:53:27;;;;;;;6.60;2.65;;;;;;;;;;4919299;29;20083;-81
2022/08/19 03:55:53;;;;;;;11.07;2.78;;;;;;;;;;4918865;29;20031;-81
2022/08/19 03:58:19;;;;;;;10.90;3.50;;;;;;;;;;4918054;29;20040;-73
2022/08/19 04:00:45;;;;;;;8.43;3.28;;;;;;;;;;4918036;29;20474;-80
2022/08/19 04:03:12;;;;;;;8.85;3.10;;;;;;;;;;4918067;29;20115;-81
2022/08/19 04:05:38;;;;;;;11.05;2.90;;;;;;;;;;4919318;29;20092;-81
2022/08/19 04:08:05;;;;;;;8.93;2.88;;;;;;;;;;4919292;29;20028;-74
2022/08/19 04:10:41;;;;;;;12.45;2.78;;;;;;;;;;4917936;29;20076;-80
2022/08/19 04:13:08;;;;;;;6.65;3.03;;;;;;;;;;4917924;29;20039;-80
2022/08/19 04:15:41;;;;;;;10.30;2.70;;;;;;;;;;4919137;29;20039;-74
2022/08/19 04:18:08;;;;;;;11.77;3.20;;;;;;;;;;4917513;29;20047;-74
2022/08/19 04:20:39;;;;;;;13.60;3.30;;;;;;;;;;4919093;29;20043;-80
2022/08/19 04:23:05;;;;;;;5.07;3.03;;;;;;;;;;4917651;29;20438;-72
2022/08/19 04:25:35;;;;;;;8.63;3.38;;;;;;;;;;4918572;29;20060;-79
2022/08/19 04:28:01;;;;;;;11.90;3.30;;;;;;;;;;4919245;29;20101;-74
2022/08/19 04:30:27;;;;;;;13.07;3.53;;;;;;;;;;4917604;29;20028;-78
2022/08/19 04:32:53;;;;;;;18.75;3.78;;;;;;;;;;4917681;29;20028;-83
2022/08/19 04:35:19;;;;;;;9.75;3.30;;;;;;;;;;4917965;29;20119;-81
2022/08/19 04:37:46;;;;;;;11.25;3.78;;;;;;;;;;4918553;29;20375;-81
2022/08/19 04:42:56;;;;;;;14.68;3.60;;;;;;;;;;4920393;29;20484;-73
2022/08/19 04:45:22;;;;;;;7.63;3.50;;;;;;;;;;4919117;29;20028;-80
2022/08/19 04:47:48;;;;;;;9.05;3.53;;;;;;;;;;4901510;29;20040;-74
2022/08/19 04:50:15;;;;;;;9.85;3.85;;;;;;;;;;4901004;29;20039;-74
2022/08/19 04:52:42;;;;;;;10.60;3.45;;;;;;;;;;4918601;29;20052;-77
2022/08/19 04:55:10;;;;;;;9.38;3.45;;;;;;;;;;4901355;29;20028;-79
2022/08/19 04:57:39;;;;;;;8.10;3.35;;;;;;;;;;4918164;29;20063;-77
2022/08/19 05:00:06;;;;;;;7.47;3.50;;;;;;;;;;4901309;29;20366;-76
2022/08/19 05:02:32;;;;;;;8.85;3.00;;;;;;;;;;4918502;29;20060;-77
2022/08/19 05:05:01;;;;;;;10.52;3.40;;;;;;;;;;4902766;29;20028;-96
2022/08/19 05:07:27;;;;;;;15.93;3.88;;;;;;;;;;4911284;29;20095;-91
2022/08/19 05:09:54;;;;;;;8.95;3.90;;;;;;;;;;4922490;29;20046;-89
2022/08/19 05:12:20;;;;;;;10.63;3.53;;;;;;;;;;4923734;29;20118;-90
2022/08/19 05:14:47;;;;;;;7.72;3.67;;;;;;;;;;4923679;29;20356;-89
2022/08/19 05:17:13;;;;;;;12.23;3.70;;;;;;;;;;4922393;29;20035;-89
2022/08/19 05:22:37;;;;;;;9.93;3.38;;;;;;;;;;4904516;29;20043;-93
2022/08/19 05:25:24;;;;;;;8.35;3.00;;;;;;;;;;4903047;29;20031;-90
2022/08/19 05:27:51;;;;;;;6.13;3.33;;;;;;;;;;4882833;29;20036;-92
2022/08/19 05:30:17;;;;;;;7.05;3.20;;;;;;;;;;4908447;29;20032;-93
2022/08/19 05:32:44;;;;;;;6.40;3.00;;;;;;;;;;4896585;29;20055;-92
2022/08/19 05:35:11;;;;;;;11.60;3.30;;;;;;;;;;4921589;29;20023;-93
2022/08/19 05:37:39;;;;;;;11.18;3.38;;;;;;;;;;4909763;29;20039;-93
2022/08/19 05:40:14;;;;;;;11.00;3.80;;;;;;;;;;4905097;29;20052;-92
2022/08/19 05:42:40;;;;;;;11.88;3.80;;;;;;;;;;4906249;29;20036;-95
2022/08/19 05:45:11;;;;;;;8.90;3.83;;;;;;;;;;4890636;29;20076;-95
2022/08/19 05:47:40;;;;;;;7.72;4.07;;;;;;;;;;4907595;29;20024;-93
2022/08/19 05:50:20;;;;;;;;;;;;;;;;;;;;;
2022/08/19 06:15:45;;;;;;;;;;;;;;;;;;;;;
2022/08/19 06:31:05;;;;;;;;;;;;;;;;;;;;;
2022/08/19 07:14:25;;;;;;;11.25;3.92;;;;;;;;;;5467987;23;19997;-92
2022/08/19 11:53:23;;;;;;;15.27;2.92;;;;;;;;;;4855239;29;20092;-93
2022/08/19 12:14:09;;;;;;;11.60;3.75;;;;;;;;;;4955985;29;20088;-96
2022/08/19 12:16:58;;;;;;;13.82;4.70;;;;;;;;;;4936327;29;20059;-96
2022/08/19 16:32:42;;;;;;;13.00;2.83;;;;;;;;;;5575171;23;21137;-76
2022/08/19 16:35:13;;;;;;;13.77;2.30;;;;;;;;;;4924755;29;20042;-93
2022/08/19 16:37:50;;;;;;;7.38;2.47;;;;;;;;;;4925722;29;20103;-94
2022/08/19 16:40:16;;;;;;;7.43;2.40;;;;;;;;;;4927247;29;20499;-92
2022/08/19 16:42:42;;;;;;;10.93;2.50;;;;;;;;;;4923431;29;20056;-88
2022/08/19 16:45:08;;;;;;;8.73;2.03;;;;;;;;;;4923517;29;20532;-88
2022/08/19 16:47:37;;;;;;;10.60;2.38;;;;;;;;;;4922056;29;20493;-89
2022/08/19 16:50:06;;;;;;;9.45;3.08;;;;;;;;;;4922303;29;20445;-86
2022/08/19 16:52:33;;;;;;;14.88;2.85;;;;;;;;;;4920422;29;20035;-88
2022/08/19 16:55:00;;;;;;;13.30;2.83;;;;;;;;;;4937926;29;20023;-84
2022/08/19 16:57:26;;;;;;;5.82;2.42;;;;;;;;;;4922055;29;20039;-87
2022/08/19 16:59:52;;;;;;;7.93;2.28;;;;;;;;;;4922094;29;20035;-73
2022/08/19 17:02:21;;;;;;;10.73;2.72;;;;;;;;;;4938255;29;20027;-88
2022/08/19 17:04:51;;;;;;;5.93;2.55;;;;;;;;;;4937372;29;20031;-88
2022/08/19 17:07:20;;;;;;;10.27;2.53;;;;;;;;;;4921423;29;20384;-88
2022/08/19 17:09:55;;;;;;;7.28;2.45;;;;;;;;;;4928613;29;20087;-92
2022/08/19 17:12:27;;;;;;;14.65;2.78;;;;;;;;;;4939344;29;20024;-90
2022/08/19 17:14:55;;;;;;;;;;;;;;;;;;4938573;29;20040;-91
2022/08/19 17:17:21;;;;;;;6.28;2.30;;;;;;;;;;4921192;29;19929;-74
2022/08/19 17:19:47;;;;;;;6.55;2.38;;;;;;;;;;4938217;29;20024;-93
2022/08/19 17:22:13;;;;;;;8.88;2.03;;;;;;;;;;4917261;29;20028;-74
2022/08/19 17:24:40;;;;;;;9.70;2.90;;;;;;;;;;4904086;29;20036;-80
2022/08/19 17:27:06;;;;;;;8.45;2.13;;;;;;;;;;4901365;29;20079;-79
2022/08/19 17:29:33;;;;;;;9.95;2.05;;;;;;;;;;4918579;29;20035;-80
2022/08/19 17:31:59;;;;;;;18.17;2.30;;;;;;;;;;4916246;29;20035;-81
2022/08/19 17:34:25;;;;;;;15.65;2.45;;;;;;;;;;4919865;29;20611;-80
2022/08/19 17:36:55;;;;;;;8.50;2.28;;;;;;;;;;4919944;29;20043;-80
2022/08/19 17:39:21;;;;;;;9.35;2.10;;;;;;;;;;4920062;29;20031;-79
2022/08/19 17:41:48;;;;;;;7.25;2.53;;;;;;;;;;4920024;29;20031;-77
2022/08/19 17:44:15;;;;;;;12.43;2.30;;;;;;;;;;4920600;29;20059;-76
2022/08/19 17:46:41;;;;;;;8.23;2.10;;;;;;;;;;4920158;29;20038;-81
2022/08/19 17:49:08;;;;;;;9.40;2.28;;;;;;;;;;4919702;29;20027;-78
2022/08/19 17:51:40;;;;;;;13.18;2.17;;;;;;;;;;4936559;29;20027;-82
2022/08/19 17:54:14;;;;;;;10.75;1.92;;;;;;;;;;4920172;29;20061;-78
2022/08/19 17:56:41;;;;;;;6.47;1.83;;;;;;;;;;4920320;29;20067;-79
2022/08/19 17:59:08;;;;;;;5.13;1.73;;;;;;;;;;4937545;29;20495;-85
2022/08/19 18:01:34;;;;;;;10.65;1.92;;;;;;;;;;4920387;29;20115;-87
2022/08/19 18:04:01;;;;;;;11.70;2.60;;;;;;;;;;4921191;29;20028;-87
2022/08/19 18:06:30;;;;;;;9.75;1.95;;;;;;;;;;4951955;29;20179;-74
2022/08/19 18:08:56;;;;;;;8.15;2.15;;;;;;;;;;4921331;29;20071;-89
2022/08/19 18:11:23;;;;;;;5.97;1.90;;;;;;;;;;4922160;29;20051;-89
2022/08/19 18:13:49;;;;;;;12.00;2.05;;;;;;;;;;4939558;29;20027;-86
2022/08/19 18:16:17;;;;;;;11.38;2.25;;;;;;;;;;4920824;29;20032;-90
2022/08/19 18:18:43;;;;;;;8.73;2.28;;;;;;;;;;4930146;29;20039;-74
2022/08/19 18:21:10;;;;;;;9.70;2.03;;;;;;;;;;4925165;29;20028;-74
2022/08/19 18:23:36;;;;;;;6.43;1.95;;;;;;;;;;4938774;29;20031;-75
2022/08/19 18:26:02;;;;;;;13.50;2.78;;;;;;;;;;4954665;29;20031;-79
2022/08/19 18:28:29;;;;;;;9.98;2.22;;;;;;;;;;4919875;29;20056;-86
2022/08/19 18:30:55;;;;;;;6.78;2.00;;;;;;;;;;4919225;29;20032;-74
2022/08/19 18:33:21;;;;;;;6.13;1.90;;;;;;;;;;4936113;29;20158;-80
2022/08/19 18:35:51;;;;;;;6.55;1.95;;;;;;;;;;4936287;29;20031;-83
2022/08/19 18:49:22;;;;;;;9.95;2.20;;;;;;;;;;4939036;29;20042;-86
2022/08/19 18:51:50;;;;;;;7.18;2.13;;;;;;;;;;4923275;29;20030;-88
2022/08/19 18:54:19;;;;;;;13.57;2.75;;;;;;;;;;4922216;29;20035;-78
2022/08/19 18:56:54;;;;;;;14.85;2.97;;;;;;;;;;4921135;29;20054;-87
2022/08/19 18:59:36;;;;;;;10.60;2.63;;;;;;;;;;4923095;29;20035;-86
2022/08/19 19:02:04;;;;;;;11.30;2.58;;;;;;;;;;4929875;29;20024;-88
2022/08/19 19:04:36;;;;;;;11.98;2.67;;;;;;;;;;4922132;29;20035;-74
2022/08/19 19:07:03;;;;;;;11.52;2.97;;;;;;;;;;4925917;29;20099;-87
2022/08/19 19:09:30;;;;;;;12.02;2.63;;;;;;;;;;4929309;29;20036;-87
2022/08/19 19:12:03;;;;;;;11.25;3.47;;;;;;;;;;4923828;29;20031;-82
2022/08/19 19:14:34;;;;;;;9.10;2.95;;;;;;;;;;4927085;29;20032;-88
2022/08/19 19:17:03;;;;;;;14.68;3.92;;;;;;;;;;4940846;29;20044;-85
2022/08/19 19:19:30;;;;;;;18.67;3.70;;;;;;;;;;4922628;29;20040;-89
2022/08/19 19:21:57;;;;;;;15.40;3.70;;;;;;;;;;4920926;29;20024;-87
2022/08/19 19:24:31;;;;;;;9.30;2.67;;;;;;;;;;4919552;29;20030;-83
2022/08/19 19:26:59;;;;;;;13.73;2.95;;;;;;;;;;4933816;29;20031;-83
2022/08/19 19:29:25;;;;;;;9.40;2.80;;;;;;;;;;4922708;29;20027;-83
2022/08/19 19:31:51;;;;;;;12.00;2.53;;;;;;;;;;4922459;29;20122;-83
2022/08/19 19:34:19;;;;;;;9.02;2.63;;;;;;;;;;4904613;29;20048;-85
2022/08/19 19:36:46;;;;;;;12.13;2.85;;;;;;;;;;4919813;29;20032;-83
2022/08/19 19:39:12;;;;;;;7.60;2.70;;;;;;;;;;4919403;29;20035;-86
2022/08/19 19:41:40;;;;;;;8.60;3.00;;;;;;;;;;4919017;29;20028;-74
2022/08/19 19:44:07;;;;;;;10.15;3.10;;;;;;;;;;4918830;29;20032;-86
2022/08/19 19:46:33;;;;;;;8.88;3.03;;;;;;;;;;4918777;29;20031;-73
2022/08/19 19:48:59;;;;;;;8.95;2.88;;;;;;;;;;4919131;29;20031;-73
2022/08/19 19:51:26;;;;;;;8.48;2.65;;;;;;;;;;4919062;29;20080;-87
2022/08/19 19:53:52;;;;;;;10.15;2.80;;;;;;;;;;4918804;29;20055;-78
2022/08/19 19:56:21;;;;;;;9.90;3.28;;;;;;;;;;4921414;29;20064;-81
2022/08/19 19:58:52;;;;;;;9.60;3.30;;;;;;;;;;4918807;29;20032;-86
2022/08/19 20:01:19;;;;;;;9.35;3.25;;;;;;;;;;4919542;29;20115;-86
2022/08/19 20:03:46;;;;;;;9.23;3.30;;;;;;;;;;4918513;29;20473;-84
2022/08/19 20:06:12;;;;;;;18.88;3.25;;;;;;;;;;4922719;29;20028;-86
2022/08/19 20:11:30;;;;;;;14.48;3.33;;;;;;;;;;4920143;29;20469;-74
2022/08/19 20:13:57;;;;;;;9.30;2.50;;;;;;;;;;4918516;29;20028;-83
2022/08/19 20:16:24;;;;;;;14.52;3.83;;;;;;;;;;4918197;29;20031;-83
2022/08/19 20:18:51;;;;;;;11.82;3.15;;;;;;;;;;4918406;29;20036;-82
2022/08/19 20:21:17;;;;;;;10.13;3.28;;;;;;;;;;4919409;29;20501;-73
2022/08/19 20:23:43;;;;;;;7.47;2.67;;;;;;;;;;4919193;29;20028;-73
2022/08/19 20:26:09;;;;;;;13.15;3.28;;;;;;;;;;4915915;29;20039;-73
2022/08/19 20:28:35;;;;;;;7.65;3.53;;;;;;;;;;4917884;29;20079;-74
2022/08/19 20:31:01;;;;;;;7.93;3.08;;;;;;;;;;4918056;29;20386;-84
2022/08/19 20:33:31;;;;;;;10.88;2.70;;;;;;;;;;4918096;29;20052;-87
2022/08/19 20:35:57;;;;;;;8.27;2.97;;;;;;;;;;4920172;29;20551;-74
2022/08/19 20:38:23;;;;;;;7.85;3.00;;;;;;;;;;4920669;29;20040;-87
2022/08/19 20:40:50;;;;;;;12.52;3.10;;;;;;;;;;4918630;29;20397;-87
2022/08/19 20:43:16;;;;;;;10.32;3.28;;;;;;;;;;4919082;29;20103;-85
2022/08/19 20:48:18;;;;;;;11.30;3.40;;;;;;;;;;4951636;23;20052;-82
2022/08/19 20:50:44;;;;;;;15.32;3.53;;;;;;;;;;4923263;29;20036;-73
2022/08/19 20:53:15;;;;;;;11.07;3.60;;;;;;;;;;4922176;29;20055;-85
2022/08/19 20:55:45;;;;;;;13.73;3.33;;;;;;;;;;4921861;29;20027;-84
2022/08/19 20:58:12;;;;;;;10.10;3.22;;;;;;;;;;4921513;29;20039;-84
2022/08/19 21:00:39;;;;;;;10.90;3.33;;;;;;;;;;4921814;29;20386;-88
2022/08/19 21:03:06;;;;;;;12.32;3.30;;;;;;;;;;4921576;29;20032;-86
2022/08/19 21:05:32;;;;;;;9.48;3.65;;;;;;;;;;4939180;29;20573;-84
2022/08/19 21:08:02;;;;;;;10.38;3.90;;;;;;;;;;4921324;29;20496;-88
2022/08/19 21:10:28;;;;;;;15.90;3.75;;;;;;;;;;4921573;29;20441;-85
2022/08/19 21:12:54;;;;;;;15.27;4.15;;;;;;;;;;4921650;29;20036;-89
2022/08/19 21:15:21;;;;;;;16.13;3.65;;;;;;;;;;4938643;29;20079;-85
2022/08/19 21:17:47;;;;;;;11.65;2.95;;;;;;;;;;4921782;29;20028;-84
2022/08/19 21:20:13;;;;;;;14.52;3.70;;;;;;;;;;4921681;29;20039;-85
2022/08/19 21:22:40;;;;;;;11.70;3.70;;;;;;;;;;4921289;29;20027;-86
2022/08/19 21:25:06;;;;;;;12.25;3.60;;;;;;;;;;4921004;29;20039;-73
2022/08/19 21:27:32;;;;;;;9.10;3.53;;;;;;;;;;4921363;29;20028;-85
2022/08/19 21:29:59;;;;;;;11.57;3.88;;;;;;;;;;4920927;29;20027;-74
2022/08/19 21:32:28;;;;;;;9.20;3.38;;;;;;;;;;4921071;29;20048;-89
2022/08/19 21:34:54;;;;;;;13.48;3.72;;;;;;;;;;4937632;29;20032;-86
2022/08/19 21:37:21;;;;;;;13.23;3.70;;;;;;;;;;4921148;29;20035;-74
2022/08/19 21:39:47;;;;;;;15.30;3.80;;;;;;;;;;4937933;29;20106;-85
2022/08/19 21:42:14;;;;;;;8.43;3.60;;;;;;;;;;4923773;29;20035;-84
2022/08/19 21:44:40;;;;;;;8.77;3.00;;;;;;;;;;4921083;29;20020;-89
2022/08/19 21:47:07;;;;;;;16.70;3.97;;;;;;;;;;4921629;29;20059;-83
2022/08/19 21:49:33;;;;;;;13.73;3.60;;;;;;;;;;4922972;29;20031;-88
2022/08/19 21:52:00;;;;;;;14.93;3.50;;;;;;;;;;4922498;29;20028;-85
2022/08/19 21:54:26;;;;;;;7.25;2.95;;;;;;;;;;4924682;29;20028;-84
2022/08/19 21:56:56;;;;;;;12.27;3.08;;;;;;;;;;4923851;29;20059;-90
2022/08/19 21:59:22;;;;;;;10.73;3.30;;;;;;;;;;4921687;29;20040;-85
2022/08/19 22:01:48;;;;;;;35.22;4.53;;;;;;;;;;4920775;29;20031;-73
2022/08/19 22:04:15;;;;;;;12.80;4.55;;;;;;;;;;4936989;29;20492;-86
2022/08/19 22:06:42;;;;;;;11.50;3.95;;;;;;;;;;4920271;29;20147;-85
2022/08/19 22:09:08;;;;;;;12.32;3.97;;;;;;;;;;4920792;29;20028;-85
2022/08/19 22:11:34;;;;;;;9.60;3.85;;;;;;;;;;4921073;29;20041;-84
2022/08/19 22:14:00;;;;;;;10.98;4.53;;;;;;;;;;4920584;29;20031;-85
2022/08/19 22:16:27;;;;;;;10.60;4.15;;;;;;;;;;4920263;29;20032;-85
2022/08/19 22:18:53;;;;;;;9.98;3.85;;;;;;;;;;4904751;29;20047;-84
2022/08/19 22:21:21;;;;;;;10.07;4.25;;;;;;;;;;4923007;29;20039;-74
2022/08/19 22:23:47;;;;;;;11.70;4.25;;;;;;;;;;4921316;29;20028;-85
2022/08/19 22:26:14;;;;;;;11.88;4.45;;;;;;;;;;4920643;29;20028;-88
2022/08/19 22:28:41;;;;;;;9.70;4.47;;;;;;;;;;4941531;29;20094;-85
2022/08/19 22:31:07;;;;;;;11.30;4.38;;;;;;;;;;4921293;29;20058;-86
2022/08/19 22:33:36;;;;;;;10.02;4.60;;;;;;;;;;4920903;29;20020;-89
2022/08/19 22:36:03;;;;;;;9.77;4.00;;;;;;;;;;4938269;29;20114;-86
2022/08/19 22:38:30;;;;;;;10.00;4.25;;;;;;;;;;4936912;29;20028;-86
2022/08/19 22:40:57;;;;;;;14.63;4.43;;;;;;;;;;4937179;29;20083;-84
2022/08/19 22:43:25;;;;;;;11.82;4.25;;;;;;;;;;4920492;29;20485;-86
2022/08/19 22:45:53;;;;;;;11.95;4.13;;;;;;;;;;4920360;29;20027;-83
2022/08/19 22:48:23;;;;;;;11.10;4.93;;;;;;;;;;4921530;29;20081;-84
2022/08/19 22:53:46;;;;;;;12.13;5.05;;;;;;;;;;4940553;29;20062;-89
2022/08/19 22:56:13;;;;;;;9.43;4.70;;;;;;;;;;4919974;29;20028;-86
2022/08/19 22:58:39;;;;;;;16.00;4.57;;;;;;;;;;4920741;29;20063;-85
2022/08/19 23:01:06;;;;;;;12.32;4.53;;;;;;;;;;4919724;29;20090;-85
2022/08/19 23:03:33;;;;;;;12.60;4.72;;;;;;;;;;4923525;29;20036;-85
2022/08/19 23:05:59;;;;;;;7.90;4.32;;;;;;;;;;4924190;29;20032;-74
2022/08/19 23:08:25;;;;;;;9.73;4.43;;;;;;;;;;4924682;29;20509;-74
2022/08/19 23:10:52;;;;;;;9.60;4.28;;;;;;;;;;4930612;29;20441;-89
2022/08/19 23:13:18;;;;;;;8.68;4.55;;;;;;;;;;4941452;29;20140;-84
2022/08/19 23:15:45;;;;;;;15.23;5.38;;;;;;;;;;4923493;29;20047;-85
2022/08/19 23:18:12;;;;;;;11.95;4.88;;;;;;;;;;4923416;29;20131;-74
2022/08/19 23:20:39;;;;;;;12.98;5.07;;;;;;;;;;4940069;29;20027;-75
2022/08/19 23:23:07;;;;;;;10.45;5.25;;;;;;;;;;4922855;29;20039;-89
2022/08/19 23:25:34;;;;;;;16.85;5.75;;;;;;;;;;4923918;29;20024;-86
2022/08/19 23:30:50;;;;;;;12.60;5.28;;;;;;;;;;4940583;29;20034;-85
2022/08/19 23:33:23;;;;;;;14.85;5.88;;;;;;;;;;4923007;29;20032;-85
2022/08/19 23:35:49;;;;;;;9.93;6.00;;;;;;;;;;4923122;29;20020;-85
2022/08/19 23:38:17;;;;;;;16.38;5.35;;;;;;;;;;4923159;29;20393;-89
2022/08/19 23:40:44;;;;;;;15.18;5.65;;;;;;;;;;4923255;29;20024;-85
2022/08/19 23:43:10;;;;;;;11.90;5.80;;;;;;;;;;4922799;29;20086;-85
2022/08/19 23:45:38;;;;;;;8.50;5.22;;;;;;;;;;4922617;29;20075;-83
2022/08/19 23:48:04;;;;;;;12.90;5.22;;;;;;;;;;4922394;29;20160;-86
2022/08/19 23:50:31;;;;;;;14.38;4.75;;;;;;;;;;4923295;29;20031;-90
2022/08/19 23:52:59;;;;;;;10.60;5.10;;;;;;;;;;4923316;29;20032;-85
2022/08/19 23:55:27;;;;;;;17.08;5.78;;;;;;;;;;4941464;29;20079;-88
2022/08/19 23:57:53;;;;;;;16.02;6.43;;;;;;;;;;4927016;29;20036;-84
